NCAR-RAP Real-Time Weather Data

Output produced by METARs form (08 May 2021  00:25 UTC)
found at http://weather.rap.ucar.edu/surface/
 
KRDM 072356Z 30013G23KT 10SM CLR 12/M03 A3019 RMK AO2 PK WND 29027/2313 SLP226 T01171028 10133 20106 51007
KRDM 072256Z 29014G25KT 10SM FEW047 12/M03 A3019 RMK AO2 PK WND 31027/2203 SLP224 T01221033
KRDM 072156Z 29017G26KT 10SM CLR 12/M03 A3019 RMK AO2 PK WND 30031/2134 SLP223 T01221028
KRDM 072056Z 31019G27KT 10SM CLR 13/M03 A3017 RMK AO2 PK WND 32029/2019 SLP214 T01331033 50000
KRDM 071956Z 33021G28KT 10SM SCT060 12/M04 A3017 RMK AO2 PK WND 32028/1922 SLP217 T01171039
KRDM 071856Z 30013G22KT 270V340 10SM BKN060 11/M05 A3018 RMK AO2 SLP219 T01111050
KRDM 071756Z 32011G23KT 10SM BKN060 12/M06 A3017 RMK AO2 SLP214 T01221056 10122 20028 58002
KRDM 071656Z 30013KT 10SM CLR 09/M05 A3018 RMK AO2 SLP219 T00941050
KRDM 071556Z 30012KT 10SM CLR 08/M03 A3017 RMK AO2 SLP217 T00781028
KRDM 071456Z VRB05KT 10SM CLR 07/M03 A3017 RMK AO2 SLP217 T00671028 53012
KRDM 071356Z 00000KT 10SM CLR 05/M03 A3016 RMK AO2 SLP213 T00501028
KRDM 071256Z 34004KT 10SM CLR 03/M03 A3015 RMK AO2 SLP208 T00331033
KRDM 071156Z AUTO 31005KT 10SM BKN042 OVC055 05/M02 A3014 RMK AO2 SLP200 T00501022 10072 20050 51009